sensor_id;sensor_type;location;lat;lon;timestamp;P1;durP1;ratioP1;P2;durP2;ratioP2
67696;SDS011;54486;51.442;6.778;2023-10-31T00:02:16;9.65;;;5.05;;
67696;SDS011;54486;51.442;6.778;2023-10-31T00:04:43;9.32;;;4.60;;
67696;SDS011;54486;51.442;6.778;2023-10-31T00:07:13;9.40;;;4.47;;
67696;SDS011;54486;51.442;6.778;2023-10-31T00:09:40;9.70;;;4.70;;
67696;SDS011;54486;51.442;6.778;2023-10-31T00:12:08;8.63;;;4.50;;
67696;SDS011;54486;51.442;6.778;2023-10-31T00:14:35;8.52;;;3.90;;
67696;SDS011;54486;51.442;6.778;2023-10-31T00:17:03;8.70;;;4.35;;
67696;SDS011;54486;51.442;6.778;2023-10-31T00:19:30;8.68;;;4.40;;
67696;SDS011;54486;51.442;6.778;2023-10-31T00:21:57;8.68;;;4.25;;
67696;SDS011;54486;51.442;6.778;2023-10-31T00:24:25;8.53;;;4.07;;
67696;SDS011;54486;51.442;6.778;2023-10-31T00:26:54;8.73;;;4.23;;
67696;SDS011;54486;51.442;6.778;2023-10-31T00:29:22;8.07;;;3.95;;
67696;SDS011;54486;51.442;6.778;2023-10-31T00:31:51;9.27;;;4.32;;
67696;SDS011;54486;51.442;6.778;2023-10-31T00:34:18;8.85;;;3.90;;
67696;SDS011;54486;51.442;6.778;2023-10-31T00:36:45;7.22;;;3.00;;
67696;SDS011;54486;51.442;6.778;2023-10-31T00:39:12;7.43;;;3.40;;
67696;SDS011;54486;51.442;6.778;2023-10-31T00:41:43;9.30;;;3.40;;
67696;SDS011;54486;51.442;6.778;2023-10-31T00:44:12;9.10;;;3.90;;
67696;SDS011;54486;51.442;6.778;2023-10-31T00:46:40;7.00;;;3.10;;
67696;SDS011;54486;51.442;6.778;2023-10-31T00:49:08;8.40;;;3.25;;
67696;SDS011;54486;51.442;6.778;2023-10-31T00:51:35;7.30;;;3.10;;
67696;SDS011;54486;51.442;6.778;2023-10-31T00:54:03;7.10;;;2.55;;
67696;SDS011;54486;51.442;6.778;2023-10-31T00:56:30;7.15;;;2.42;;
67696;SDS011;54486;51.442;6.778;2023-10-31T00:58:57;6.63;;;2.20;;
67696;SDS011;54486;51.442;6.778;2023-10-31T01:01:25;5.70;;;1.92;;
67696;SDS011;54486;51.442;6.778;2023-10-31T01:03:54;6.03;;;1.90;;
67696;SDS011;54486;51.442;6.778;2023-10-31T01:06:21;6.25;;;2.10;;
67696;SDS011;54486;51.442;6.778;2023-10-31T01:08:48;7.65;;;1.80;;
67696;SDS011;54486;51.442;6.778;2023-10-31T01:11:15;6.95;;;2.25;;
67696;SDS011;54486;51.442;6.778;2023-10-31T01:13:42;6.57;;;2.08;;
67696;SDS011;54486;51.442;6.778;2023-10-31T01:16:10;7.07;;;2.67;;
67696;SDS011;54486;51.442;6.778;2023-10-31T01:18:37;7.90;;;2.53;;
67696;SDS011;54486;51.442;6.778;2023-10-31T01:21:05;8.60;;;3.90;;
67696;SDS011;54486;51.442;6.778;2023-10-31T01:23:32;9.38;;;3.85;;
67696;SDS011;54486;51.442;6.778;2023-10-31T01:26:00;9.57;;;4.20;;
67696;SDS011;54486;51.442;6.778;2023-10-31T01:28:27;9.43;;;4.70;;
67696;SDS011;54486;51.442;6.778;2023-10-31T01:30:55;10.60;;;5.30;;
67696;SDS011;54486;51.442;6.778;2023-10-31T01:33:22;12.00;;;6.70;;
67696;SDS011;54486;51.442;6.778;2023-10-31T01:35:49;12.68;;;6.25;;
67696;SDS011;54486;51.442;6.778;2023-10-31T01:38:17;14.20;;;7.07;;
67696;SDS011;54486;51.442;6.778;2023-10-31T01:40:48;14.18;;;7.40;;
67696;SDS011;54486;51.442;6.778;2023-10-31T01:43:29;12.45;;;7.38;;
67696;SDS011;54486;51.442;6.778;2023-10-31T01:45:57;12.73;;;7.65;;
67696;SDS011;54486;51.442;6.778;2023-10-31T01:48:25;13.43;;;7.47;;
67696;SDS011;54486;51.442;6.778;2023-10-31T01:50:56;13.27;;;7.10;;
67696;SDS011;54486;51.442;6.778;2023-10-31T01:53:25;13.13;;;6.93;;
67696;SDS011;54486;51.442;6.778;2023-10-31T01:55:54;12.90;;;7.63;;
67696;SDS011;54486;51.442;6.778;2023-10-31T01:58:34;13.17;;;7.50;;
67696;SDS011;54486;51.442;6.778;2023-10-31T02:01:03;14.18;;;7.25;;
67696;SDS011;54486;51.442;6.778;2023-10-31T02:03:33;13.05;;;7.03;;
67696;SDS011;54486;51.442;6.778;2023-10-31T02:06:00;13.30;;;6.77;;
67696;SDS011;54486;51.442;6.778;2023-10-31T02:08:27;12.35;;;7.05;;
67696;SDS011;54486;51.442;6.778;2023-10-31T02:10:54;14.45;;;7.05;;
67696;SDS011;54486;51.442;6.778;2023-10-31T02:13:22;12.68;;;6.10;;
67696;SDS011;54486;51.442;6.778;2023-10-31T02:15:50;13.80;;;6.07;;
67696;SDS011;54486;51.442;6.778;2023-10-31T02:18:17;12.25;;;5.80;;
67696;SDS011;54486;51.442;6.778;2023-10-31T02:20:44;11.95;;;6.50;;
67696;SDS011;54486;51.442;6.778;2023-10-31T02:23:11;11.83;;;6.47;;
67696;SDS011;54486;51.442;6.778;2023-10-31T02:25:38;13.45;;;6.70;;
67696;SDS011;54486;51.442;6.778;2023-10-31T02:28:05;13.57;;;7.10;;
67696;SDS011;54486;51.442;6.778;2023-10-31T02:30:33;15.50;;;7.63;;
67696;SDS011;54486;51.442;6.778;2023-10-31T02:33:03;17.13;;;8.30;;
67696;SDS011;54486;51.442;6.778;2023-10-31T02:35:30;16.55;;;8.48;;
67696;SDS011;54486;51.442;6.778;2023-10-31T02:37:58;17.48;;;8.63;;
67696;SDS011;54486;51.442;6.778;2023-10-31T02:40:25;18.10;;;9.00;;
67696;SDS011;54486;51.442;6.778;2023-10-31T02:42:53;20.27;;;9.70;;
67696;SDS011;54486;51.442;6.778;2023-10-31T02:45:20;16.60;;;9.00;;
67696;SDS011;54486;51.442;6.778;2023-10-31T02:47:47;18.83;;;9.25;;
67696;SDS011;54486;51.442;6.778;2023-10-31T02:50:15;17.88;;;9.73;;
67696;SDS011;54486;51.442;6.778;2023-10-31T02:52:42;18.40;;;9.02;;
67696;SDS011;54486;51.442;6.778;2023-10-31T02:55:09;21.10;;;9.68;;
67696;SDS011;54486;51.442;6.778;2023-10-31T02:57:36;19.80;;;9.80;;
67696;SDS011;54486;51.442;6.778;2023-10-31T03:00:04;19.15;;;9.55;;
67696;SDS011;54486;51.442;6.778;2023-10-31T03:02:31;19.90;;;9.83;;
67696;SDS011;54486;51.442;6.778;2023-10-31T03:04:58;19.00;;;9.43;;
67696;SDS011;54486;51.442;6.778;2023-10-31T03:07:26;19.08;;;9.20;;
67696;SDS011;54486;51.442;6.778;2023-10-31T03:09:53;21.55;;;8.85;;
67696;SDS011;54486;51.442;6.778;2023-10-31T03:12:21;18.07;;;8.83;;
67696;SDS011;54486;51.442;6.778;2023-10-31T03:14:48;18.50;;;9.45;;
67696;SDS011;54486;51.442;6.778;2023-10-31T03:17:15;18.30;;;9.35;;
67696;SDS011;54486;51.442;6.778;2023-10-31T03:19:42;19.10;;;8.70;;
67696;SDS011;54486;51.442;6.778;2023-10-31T03:22:09;18.70;;;8.77;;
67696;SDS011;54486;51.442;6.778;2023-10-31T03:24:37;16.47;;;8.77;;
67696;SDS011;54486;51.442;6.778;2023-10-31T03:27:04;18.58;;;9.40;;
67696;SDS011;54486;51.442;6.778;2023-10-31T03:29:32;18.83;;;8.57;;
67696;SDS011;54486;51.442;6.778;2023-10-31T03:31:59;17.55;;;8.85;;
67696;SDS011;54486;51.442;6.778;2023-10-31T03:34:26;17.45;;;8.73;;
67696;SDS011;54486;51.442;6.778;2023-10-31T03:36:53;16.98;;;9.13;;
67696;SDS011;54486;51.442;6.778;2023-10-31T03:39:20;19.73;;;9.40;;
67696;SDS011;54486;51.442;6.778;2023-10-31T03:41:47;18.38;;;9.40;;
67696;SDS011;54486;51.442;6.778;2023-10-31T03:44:15;19.80;;;9.38;;
67696;SDS011;54486;51.442;6.778;2023-10-31T03:46:42;20.88;;;9.57;;
67696;SDS011;54486;51.442;6.778;2023-10-31T03:49:09;21.63;;;10.05;;
67696;SDS011;54486;51.442;6.778;2023-10-31T03:51:36;19.60;;;10.03;;
67696;SDS011;54486;51.442;6.778;2023-10-31T03:54:03;22.30;;;10.32;;
67696;SDS011;54486;51.442;6.778;2023-10-31T03:56:31;22.58;;;10.50;;
67696;SDS011;54486;51.442;6.778;2023-10-31T03:59:05;23.05;;;10.68;;
67696;SDS011;54486;51.442;6.778;2023-10-31T04:01:32;24.27;;;11.00;;
67696;SDS011;54486;51.442;6.778;2023-10-31T04:03:59;23.67;;;10.45;;
67696;SDS011;54486;51.442;6.778;2023-10-31T04:06:26;20.88;;;9.38;;
67696;SDS011;54486;51.442;6.778;2023-10-31T04:08:55;22.00;;;9.77;;
67696;SDS011;54486;51.442;6.778;2023-10-31T04:11:22;26.73;;;11.32;;
67696;SDS011;54486;51.442;6.778;2023-10-31T04:13:50;24.43;;;10.23;;
67696;SDS011;54486;51.442;6.778;2023-10-31T04:16:17;19.02;;;9.35;;
67696;SDS011;54486;51.442;6.778;2023-10-31T04:18:44;22.33;;;9.30;;
67696;SDS011;54486;51.442;6.778;2023-10-31T04:21:11;22.95;;;10.55;;
67696;SDS011;54486;51.442;6.778;2023-10-31T04:23:38;23.57;;;10.40;;
67696;SDS011;54486;51.442;6.778;2023-10-31T04:26:06;25.23;;;12.05;;
67696;SDS011;54486;51.442;6.778;2023-10-31T04:28:34;23.98;;;11.10;;
67696;SDS011;54486;51.442;6.778;2023-10-31T04:31:01;24.33;;;11.30;;
67696;SDS011;54486;51.442;6.778;2023-10-31T04:33:28;22.88;;;10.15;;
67696;SDS011;54486;51.442;6.778;2023-10-31T04:35:55;25.60;;;11.93;;
67696;SDS011;54486;51.442;6.778;2023-10-31T04:38:23;24.60;;;11.13;;
67696;SDS011;54486;51.442;6.778;2023-10-31T04:40:50;24.67;;;11.83;;
67696;SDS011;54486;51.442;6.778;2023-10-31T04:43:18;28.40;;;12.82;;
67696;SDS011;54486;51.442;6.778;2023-10-31T04:45:45;29.65;;;12.77;;
67696;SDS011;54486;51.442;6.778;2023-10-31T04:48:12;28.23;;;12.60;;
67696;SDS011;54486;51.442;6.778;2023-10-31T04:50:39;26.97;;;12.00;;
67696;SDS011;54486;51.442;6.778;2023-10-31T04:53:07;27.55;;;12.95;;
67696;SDS011;54486;51.442;6.778;2023-10-31T04:55:35;30.85;;;12.35;;
67696;SDS011;54486;51.442;6.778;2023-10-31T04:58:01;29.05;;;11.35;;
67696;SDS011;54486;51.442;6.778;2023-10-31T05:00:29;22.02;;;10.00;;
67696;SDS011;54486;51.442;6.778;2023-10-31T05:02:56;18.00;;;8.23;;
67696;SDS011;54486;51.442;6.778;2023-10-31T05:05:25;19.98;;;8.85;;
67696;SDS011;54486;51.442;6.778;2023-10-31T05:07:52;17.97;;;8.20;;
67696;SDS011;54486;51.442;6.778;2023-10-31T05:10:19;18.92;;;8.60;;
67696;SDS011;54486;51.442;6.778;2023-10-31T05:12:46;17.13;;;8.43;;
67696;SDS011;54486;51.442;6.778;2023-10-31T05:15:14;18.45;;;8.77;;
67696;SDS011;54486;51.442;6.778;2023-10-31T05:17:42;18.67;;;8.45;;
67696;SDS011;54486;51.442;6.778;2023-10-31T05:20:09;20.45;;;9.18;;
67696;SDS011;54486;51.442;6.778;2023-10-31T05:22:36;20.08;;;9.40;;
67696;SDS011;54486;51.442;6.778;2023-10-31T05:25:04;18.55;;;8.77;;
67696;SDS011;54486;51.442;6.778;2023-10-31T05:27:32;19.50;;;9.20;;
67696;SDS011;54486;51.442;6.778;2023-10-31T05:30:00;20.02;;;9.05;;
67696;SDS011;54486;51.442;6.778;2023-10-31T05:32:27;20.20;;;9.37;;
67696;SDS011;54486;51.442;6.778;2023-10-31T05:34:56;18.00;;;8.77;;
67696;SDS011;54486;51.442;6.778;2023-10-31T05:37:26;18.20;;;8.73;;
67696;SDS011;54486;51.442;6.778;2023-10-31T05:39:53;19.25;;;9.43;;
67696;SDS011;54486;51.442;6.778;2023-10-31T05:42:22;20.10;;;9.77;;
67696;SDS011;54486;51.442;6.778;2023-10-31T05:44:54;17.65;;;9.27;;
67696;SDS011;54486;51.442;6.778;2023-10-31T05:47:23;22.23;;;10.30;;
67696;SDS011;54486;51.442;6.778;2023-10-31T05:49:51;19.20;;;9.48;;
67696;SDS011;54486;51.442;6.778;2023-10-31T05:52:20;19.60;;;9.68;;
67696;SDS011;54486;51.442;6.778;2023-10-31T05:54:49;19.08;;;9.68;;
67696;SDS011;54486;51.442;6.778;2023-10-31T05:57:17;20.03;;;10.17;;
67696;SDS011;54486;51.442;6.778;2023-10-31T05:59:45;19.05;;;9.65;;
67696;SDS011;54486;51.442;6.778;2023-10-31T06:02:13;17.77;;;9.33;;
67696;SDS011;54486;51.442;6.778;2023-10-31T06:04:43;18.83;;;9.37;;
67696;SDS011;54486;51.442;6.778;2023-10-31T06:07:11;18.13;;;9.23;;
67696;SDS011;54486;51.442;6.778;2023-10-31T06:09:39;17.58;;;8.82;;
67696;SDS011;54486;51.442;6.778;2023-10-31T06:12:07;18.45;;;9.02;;
67696;SDS011;54486;51.442;6.778;2023-10-31T06:14:36;19.95;;;9.45;;
67696;SDS011;54486;51.442;6.778;2023-10-31T06:17:04;16.30;;;8.90;;
67696;SDS011;54486;51.442;6.778;2023-10-31T06:19:38;17.77;;;8.50;;
67696;SDS011;54486;51.442;6.778;2023-10-31T06:22:12;17.58;;;9.38;;
67696;SDS011;54486;51.442;6.778;2023-10-31T06:24:42;18.00;;;8.17;;
67696;SDS011;54486;51.442;6.778;2023-10-31T06:27:10;15.30;;;8.55;;
67696;SDS011;54486;51.442;6.778;2023-10-31T06:29:37;17.00;;;8.40;;
67696;SDS011;54486;51.442;6.778;2023-10-31T06:32:24;16.05;;;8.55;;
67696;SDS011;54486;51.442;6.778;2023-10-31T06:34:51;16.53;;;8.87;;
67696;SDS011;54486;51.442;6.778;2023-10-31T06:37:21;16.37;;;8.20;;
67696;SDS011;54486;51.442;6.778;2023-10-31T06:39:49;17.20;;;9.32;;
67696;SDS011;54486;51.442;6.778;2023-10-31T06:42:18;17.67;;;9.35;;
67696;SDS011;54486;51.442;6.778;2023-10-31T06:44:47;19.30;;;9.60;;
67696;SDS011;54486;51.442;6.778;2023-10-31T06:47:15;17.63;;;9.33;;
67696;SDS011;54486;51.442;6.778;2023-10-31T06:49:47;19.63;;;10.20;;
67696;SDS011;54486;51.442;6.778;2023-10-31T06:52:17;15.82;;;8.27;;
67696;SDS011;54486;51.442;6.778;2023-10-31T06:54:45;15.82;;;8.63;;
67696;SDS011;54486;51.442;6.778;2023-10-31T06:57:13;16.02;;;7.90;;
67696;SDS011;54486;51.442;6.778;2023-10-31T06:59:40;16.52;;;8.40;;
67696;SDS011;54486;51.442;6.778;2023-10-31T07:02:09;16.27;;;8.00;;
67696;SDS011;54486;51.442;6.778;2023-10-31T07:04:36;17.85;;;8.70;;
67696;SDS011;54486;51.442;6.778;2023-10-31T07:07:03;17.63;;;8.18;;
67696;SDS011;54486;51.442;6.778;2023-10-31T07:09:30;16.73;;;8.30;;
67696;SDS011;54486;51.442;6.778;2023-10-31T07:11:58;18.65;;;8.68;;
67696;SDS011;54486;51.442;6.778;2023-10-31T07:14:25;21.50;;;10.52;;
67696;SDS011;54486;51.442;6.778;2023-10-31T07:16:53;21.77;;;11.27;;
67696;SDS011;54486;51.442;6.778;2023-10-31T07:19:20;25.50;;;12.10;;
67696;SDS011;54486;51.442;6.778;2023-10-31T07:21:47;26.02;;;12.13;;
67696;SDS011;54486;51.442;6.778;2023-10-31T07:24:15;22.65;;;11.05;;
67696;SDS011;54486;51.442;6.778;2023-10-31T07:26:42;19.70;;;10.35;;
67696;SDS011;54486;51.442;6.778;2023-10-31T07:29:09;21.88;;;10.93;;
67696;SDS011;54486;51.442;6.778;2023-10-31T07:31:37;22.40;;;10.80;;
67696;SDS011;54486;51.442;6.778;2023-10-31T07:34:05;22.80;;;11.38;;
67696;SDS011;54486;51.442;6.778;2023-10-31T07:36:33;24.98;;;11.85;;
67696;SDS011;54486;51.442;6.778;2023-10-31T07:39:01;24.17;;;12.18;;
67696;SDS011;54486;51.442;6.778;2023-10-31T07:41:30;22.45;;;12.40;;
67696;SDS011;54486;51.442;6.778;2023-10-31T07:43:57;20.67;;;11.05;;
67696;SDS011;54486;51.442;6.778;2023-10-31T07:46:25;26.33;;;12.13;;
67696;SDS011;54486;51.442;6.778;2023-10-31T07:48:52;22.50;;;11.80;;
67696;SDS011;54486;51.442;6.778;2023-10-31T07:51:19;22.13;;;11.50;;
67696;SDS011;54486;51.442;6.778;2023-10-31T07:53:46;23.70;;;11.52;;
67696;SDS011;54486;51.442;6.778;2023-10-31T07:56:14;22.15;;;11.50;;
67696;SDS011;54486;51.442;6.778;2023-10-31T07:58:50;19.35;;;10.05;;
67696;SDS011;54486;51.442;6.778;2023-10-31T08:01:18;18.58;;;10.63;;
67696;SDS011;54486;51.442;6.778;2023-10-31T08:03:46;18.48;;;10.10;;
67696;SDS011;54486;51.442;6.778;2023-10-31T08:06:14;19.27;;;10.18;;
67696;SDS011;54486;51.442;6.778;2023-10-31T08:08:42;18.85;;;10.80;;
67696;SDS011;54486;51.442;6.778;2023-10-31T08:11:09;20.45;;;10.60;;
67696;SDS011;54486;51.442;6.778;2023-10-31T08:13:38;19.67;;;9.73;;
67696;SDS011;54486;51.442;6.778;2023-10-31T08:16:06;19.08;;;10.55;;
67696;SDS011;54486;51.442;6.778;2023-10-31T08:18:35;20.25;;;10.57;;
67696;SDS011;54486;51.442;6.778;2023-10-31T08:21:05;18.10;;;9.63;;
67696;SDS011;54486;51.442;6.778;2023-10-31T08:23:32;19.52;;;10.25;;
67696;SDS011;54486;51.442;6.778;2023-10-31T08:25:59;18.52;;;9.98;;
67696;SDS011;54486;51.442;6.778;2023-10-31T08:28:27;16.52;;;9.30;;
67696;SDS011;54486;51.442;6.778;2023-10-31T08:30:55;17.60;;;9.80;;
67696;SDS011;54486;51.442;6.778;2023-10-31T08:33:22;18.47;;;9.47;;
67696;SDS011;54486;51.442;6.778;2023-10-31T08:35:49;16.67;;;9.38;;
67696;SDS011;54486;51.442;6.778;2023-10-31T08:38:17;17.70;;;9.07;;
67696;SDS011;54486;51.442;6.778;2023-10-31T08:40:58;16.52;;;8.80;;
67696;SDS011;54486;51.442;6.778;2023-10-31T08:43:26;14.95;;;7.80;;
67696;SDS011;54486;51.442;6.778;2023-10-31T08:45:53;14.50;;;7.95;;
67696;SDS011;54486;51.442;6.778;2023-10-31T08:48:21;15.13;;;8.47;;
67696;SDS011;54486;51.442;6.778;2023-10-31T08:50:49;16.35;;;8.00;;
67696;SDS011;54486;51.442;6.778;2023-10-31T08:53:16;14.20;;;7.47;;
67696;SDS011;54486;51.442;6.778;2023-10-31T08:55:43;13.65;;;6.90;;
67696;SDS011;54486;51.442;6.778;2023-10-31T08:58:11;12.90;;;6.77;;
67696;SDS011;54486;51.442;6.778;2023-10-31T09:00:39;13.68;;;7.13;;
67696;SDS011;54486;51.442;6.778;2023-10-31T09:03:10;12.73;;;6.47;;
67696;SDS011;54486;51.442;6.778;2023-10-31T09:05:37;14.55;;;6.93;;
67696;SDS011;54486;51.442;6.778;2023-10-31T09:08:05;11.63;;;5.80;;
67696;SDS011;54486;51.442;6.778;2023-10-31T09:10:33;12.40;;;6.35;;
67696;SDS011;54486;51.442;6.778;2023-10-31T09:13:02;12.98;;;7.13;;
67696;SDS011;54486;51.442;6.778;2023-10-31T09:15:29;14.40;;;6.65;;
67696;SDS011;54486;51.442;6.778;2023-10-31T09:17:56;11.93;;;6.50;;
67696;SDS011;54486;51.442;6.778;2023-10-31T09:20:24;14.40;;;6.30;;
67696;SDS011;54486;51.442;6.778;2023-10-31T09:22:52;12.68;;;6.20;;
67696;SDS011;54486;51.442;6.778;2023-10-31T09:25:19;14.38;;;5.97;;
67696;SDS011;54486;51.442;6.778;2023-10-31T09:27:47;11.55;;;6.20;;
67696;SDS011;54486;51.442;6.778;2023-10-31T09:30:14;13.45;;;6.72;;
67696;SDS011;54486;51.442;6.778;2023-10-31T09:32:41;19.10;;;7.65;;
67696;SDS011;54486;51.442;6.778;2023-10-31T09:35:09;19.43;;;8.70;;
67696;SDS011;54486;51.442;6.778;2023-10-31T09:37:36;17.23;;;8.00;;
67696;SDS011;54486;51.442;6.778;2023-10-31T09:40:03;18.33;;;7.55;;
67696;SDS011;54486;51.442;6.778;2023-10-31T09:42:31;14.90;;;7.93;;
67696;SDS011;54486;51.442;6.778;2023-10-31T09:44:59;17.23;;;7.55;;
67696;SDS011;54486;51.442;6.778;2023-10-31T09:47:26;14.93;;;7.67;;
67696;SDS011;54486;51.442;6.778;2023-10-31T09:49:54;22.83;;;8.85;;
67696;SDS011;54486;51.442;6.778;2023-10-31T09:52:22;18.63;;;9.55;;
67696;SDS011;54486;51.442;6.778;2023-10-31T09:54:49;17.00;;;7.93;;
67696;SDS011;54486;51.442;6.778;2023-10-31T09:57:18;19.50;;;8.80;;
67696;SDS011;54486;51.442;6.778;2023-10-31T09:59:45;19.42;;;8.93;;
67696;SDS011;54486;51.442;6.778;2023-10-31T10:02:12;18.48;;;8.07;;
67696;SDS011;54486;51.442;6.778;2023-10-31T10:04:39;19.02;;;9.02;;
67696;SDS011;54486;51.442;6.778;2023-10-31T10:07:07;18.95;;;8.80;;
67696;SDS011;54486;51.442;6.778;2023-10-31T10:09:34;18.23;;;9.23;;
67696;SDS011;54486;51.442;6.778;2023-10-31T10:12:01;18.83;;;8.30;;
67696;SDS011;54486;51.442;6.778;2023-10-31T10:14:29;17.98;;;9.40;;
67696;SDS011;54486;51.442;6.778;2023-10-31T10:16:58;18.85;;;8.40;;
67696;SDS011;54486;51.442;6.778;2023-10-31T10:19:26;18.02;;;8.40;;
67696;SDS011;54486;51.442;6.778;2023-10-31T10:21:56;20.23;;;8.50;;
67696;SDS011;54486;51.442;6.778;2023-10-31T10:24:24;18.63;;;8.40;;
67696;SDS011;54486;51.442;6.778;2023-10-31T10:26:53;19.20;;;8.85;;
67696;SDS011;54486;51.442;6.778;2023-10-31T10:29:20;20.27;;;8.68;;
67696;SDS011;54486;51.442;6.778;2023-10-31T10:31:48;18.63;;;8.20;;
67696;SDS011;54486;51.442;6.778;2023-10-31T10:34:15;16.48;;;7.95;;
67696;SDS011;54486;51.442;6.778;2023-10-31T10:36:47;15.38;;;7.15;;
67696;SDS011;54486;51.442;6.778;2023-10-31T10:39:21;15.07;;;6.57;;
67696;SDS011;54486;51.442;6.778;2023-10-31T10:41:51;13.57;;;6.57;;
67696;SDS011;54486;51.442;6.778;2023-10-31T10:44:33;16.17;;;6.88;;
67696;SDS011;54486;51.442;6.778;2023-10-31T10:47:03;12.88;;;5.82;;
67696;SDS011;54486;51.442;6.778;2023-10-31T10:49:33;11.37;;;5.50;;
67696;SDS011;54486;51.442;6.778;2023-10-31T10:52:11;12.65;;;6.00;;
67696;SDS011;54486;51.442;6.778;2023-10-31T10:54:45;10.57;;;4.90;;
67696;SDS011;54486;51.442;6.778;2023-10-31T10:57:36;11.18;;;4.93;;
67696;SDS011;54486;51.442;6.778;2023-10-31T11:00:07;12.05;;;4.95;;
67696;SDS011;54486;51.442;6.778;2023-10-31T11:02:36;13.70;;;5.07;;
67696;SDS011;54486;51.442;6.778;2023-10-31T11:05:05;11.32;;;4.75;;
67696;SDS011;54486;51.442;6.778;2023-10-31T11:07:35;11.32;;;4.65;;
67696;SDS011;54486;51.442;6.778;2023-10-31T11:10:06;12.13;;;5.57;;
67696;SDS011;54486;51.442;6.778;2023-10-31T11:12:35;12.10;;;5.00;;
67696;SDS011;54486;51.442;6.778;2023-10-31T11:15:05;10.85;;;5.10;;
67696;SDS011;54486;51.442;6.778;2023-10-31T11:17:34;13.32;;;5.18;;
67696;SDS011;54486;51.442;6.778;2023-10-31T11:20:04;13.45;;;5.60;;
67696;SDS011;54486;51.442;6.778;2023-10-31T11:22:42;10.93;;;4.45;;
67696;SDS011;54486;51.442;6.778;2023-10-31T11:25:15;12.88;;;5.22;;
67696;SDS011;54486;51.442;6.778;2023-10-31T11:28:14;10.68;;;5.03;;
67696;SDS011;54486;51.442;6.778;2023-10-31T11:30:43;10.38;;;4.70;;
67696;SDS011;54486;51.442;6.778;2023-10-31T11:33:13;11.32;;;5.15;;
67696;SDS011;54486;51.442;6.778;2023-10-31T11:35:41;11.03;;;5.10;;
67696;SDS011;54486;51.442;6.778;2023-10-31T11:38:11;11.52;;;4.50;;
67696;SDS011;54486;51.442;6.778;2023-10-31T11:43:16;10.20;;;4.10;;
67696;SDS011;54486;51.442;6.778;2023-10-31T11:45:44;9.93;;;4.40;;
67696;SDS011;54486;51.442;6.778;2023-10-31T11:48:14;11.07;;;4.63;;
67696;SDS011;54486;51.442;6.778;2023-10-31T11:50:42;11.23;;;3.30;;
67696;SDS011;54486;51.442;6.778;2023-10-31T11:53:14;9.10;;;3.00;;
67696;SDS011;54486;51.442;6.778;2023-10-31T11:55:47;10.30;;;3.10;;
67696;SDS011;54486;51.442;6.778;2023-10-31T11:58:20;8.40;;;3.00;;
67696;SDS011;54486;51.442;6.778;2023-10-31T12:00:52;9.48;;;3.13;;
67696;SDS011;54486;51.442;6.778;2023-10-31T12:03:27;9.07;;;3.08;;
67696;SDS011;54486;51.442;6.778;2023-10-31T12:05:56;9.90;;;3.33;;
67696;SDS011;54486;51.442;6.778;2023-10-31T12:08:43;12.50;;;3.40;;
67696;SDS011;54486;51.442;6.778;2023-10-31T12:11:11;8.68;;;3.25;;
67696;SDS011;54486;51.442;6.778;2023-10-31T12:13:41;7.85;;;2.90;;
67696;SDS011;54486;51.442;6.778;2023-10-31T12:16:22;10.25;;;3.20;;
67696;SDS011;54486;51.442;6.778;2023-10-31T12:18:55;9.43;;;3.40;;
67696;SDS011;54486;51.442;6.778;2023-10-31T12:21:42;10.20;;;3.22;;
67696;SDS011;54486;51.442;6.778;2023-10-31T12:24:11;9.77;;;3.05;;
67696;SDS011;54486;51.442;6.778;2023-10-31T12:26:39;7.75;;;3.10;;
67696;SDS011;54486;51.442;6.778;2023-10-31T12:31:39;8.80;;;3.33;;
67696;SDS011;54486;51.442;6.778;2023-10-31T12:34:09;10.70;;;3.60;;
67696;SDS011;54486;51.442;6.778;2023-10-31T12:36:36;9.63;;;3.70;;
67696;SDS011;54486;51.442;6.778;2023-10-31T12:39:04;9.52;;;3.10;;
67696;SDS011;54486;51.442;6.778;2023-10-31T12:41:34;9.27;;;2.78;;
67696;SDS011;54486;51.442;6.778;2023-10-31T12:44:01;8.85;;;3.40;;
67696;SDS011;54486;51.442;6.778;2023-10-31T12:46:31;9.25;;;3.55;;
67696;SDS011;54486;51.442;6.778;2023-10-31T12:48:59;9.38;;;3.25;;
67696;SDS011;54486;51.442;6.778;2023-10-31T12:51:26;8.20;;;3.13;;
67696;SDS011;54486;51.442;6.778;2023-10-31T12:53:53;6.63;;;2.38;;
67696;SDS011;54486;51.442;6.778;2023-10-31T12:56:39;9.63;;;2.60;;
67696;SDS011;54486;51.442;6.778;2023-10-31T12:59:10;8.43;;;3.28;;
67696;SDS011;54486;51.442;6.778;2023-10-31T13:01:42;10.00;;;3.50;;
67696;SDS011;54486;51.442;6.778;2023-10-31T13:04:11;9.52;;;3.22;;
67696;SDS011;54486;51.442;6.778;2023-10-31T13:06:39;9.80;;;3.17;;
67696;SDS011;54486;51.442;6.778;2023-10-31T13:09:06;8.38;;;2.80;;
67696;SDS011;54486;51.442;6.778;2023-10-31T13:11:39;8.67;;;2.83;;
67696;SDS011;54486;51.442;6.778;2023-10-31T13:14:06;7.20;;;2.47;;
67696;SDS011;54486;51.442;6.778;2023-10-31T13:16:33;7.43;;;2.70;;
67696;SDS011;54486;51.442;6.778;2023-10-31T13:19:01;10.38;;;2.75;;
67696;SDS011;54486;51.442;6.778;2023-10-31T13:21:28;8.35;;;2.30;;
67696;SDS011;54486;51.442;6.778;2023-10-31T13:23:55;7.60;;;2.38;;
67696;SDS011;54486;51.442;6.778;2023-10-31T13:26:22;7.20;;;2.50;;
67696;SDS011;54486;51.442;6.778;2023-10-31T13:28:50;8.57;;;2.60;;
67696;SDS011;54486;51.442;6.778;2023-10-31T13:31:17;8.20;;;2.55;;
67696;SDS011;54486;51.442;6.778;2023-10-31T13:33:45;9.00;;;3.15;;
67696;SDS011;54486;51.442;6.778;2023-10-31T13:36:13;8.65;;;2.65;;
67696;SDS011;54486;51.442;6.778;2023-10-31T13:38:41;8.50;;;2.93;;
67696;SDS011;54486;51.442;6.778;2023-10-31T13:41:08;9.15;;;2.85;;
67696;SDS011;54486;51.442;6.778;2023-10-31T13:43:37;7.78;;;2.50;;
67696;SDS011;54486;51.442;6.778;2023-10-31T13:46:03;9.80;;;2.80;;
67696;SDS011;54486;51.442;6.778;2023-10-31T13:48:32;9.27;;;2.75;;
67696;SDS011;54486;51.442;6.778;2023-10-31T13:51:00;8.80;;;2.67;;
67696;SDS011;54486;51.442;6.778;2023-10-31T13:53:27;6.90;;;2.25;;
67696;SDS011;54486;51.442;6.778;2023-10-31T13:55:54;7.13;;;2.53;;
67696;SDS011;54486;51.442;6.778;2023-10-31T13:58:21;8.63;;;2.17;;
67696;SDS011;54486;51.442;6.778;2023-10-31T14:00:48;8.75;;;2.50;;
67696;SDS011;54486;51.442;6.778;2023-10-31T14:03:16;8.40;;;2.70;;
67696;SDS011;54486;51.442;6.778;2023-10-31T14:05:44;7.10;;;2.10;;
67696;SDS011;54486;51.442;6.778;2023-10-31T14:08:11;8.60;;;2.70;;
67696;SDS011;54486;51.442;6.778;2023-10-31T14:10:38;7.97;;;2.57;;
67696;SDS011;54486;51.442;6.778;2023-10-31T14:13:06;9.05;;;2.67;;
67696;SDS011;54486;51.442;6.778;2023-10-31T14:15:33;10.63;;;2.33;;
67696;SDS011;54486;51.442;6.778;2023-10-31T14:18:00;8.63;;;2.70;;
67696;SDS011;54486;51.442;6.778;2023-10-31T14:20:28;6.93;;;2.25;;
67696;SDS011;54486;51.442;6.778;2023-10-31T14:22:55;8.98;;;2.35;;
67696;SDS011;54486;51.442;6.778;2023-10-31T14:25:23;6.75;;;2.33;;
67696;SDS011;54486;51.442;6.778;2023-10-31T14:27:50;7.40;;;1.93;;
67696;SDS011;54486;51.442;6.778;2023-10-31T14:30:17;6.68;;;2.20;;
67696;SDS011;54486;51.442;6.778;2023-10-31T14:32:45;6.82;;;2.03;;
67696;SDS011;54486;51.442;6.778;2023-10-31T14:35:13;6.65;;;2.45;;
67696;SDS011;54486;51.442;6.778;2023-10-31T14:37:40;7.10;;;2.30;;
67696;SDS011;54486;51.442;6.778;2023-10-31T14:40:07;6.45;;;2.13;;
67696;SDS011;54486;51.442;6.778;2023-10-31T14:42:35;8.27;;;2.45;;
67696;SDS011;54486;51.442;6.778;2023-10-31T14:45:04;7.07;;;2.40;;
67696;SDS011;54486;51.442;6.778;2023-10-31T14:47:32;7.30;;;2.80;;
67696;SDS011;54486;51.442;6.778;2023-10-31T14:50:00;9.15;;;2.47;;